This is the latest recevied weather packets stored in our database for station/object KD4EED. If no packets are shown the sender has not sent any weather packets the latest 10 day(s).
| Time | Temp. | Humidity | Pressure | Rain* | Wind** | Luminosity | Snow |
|---|---|---|---|---|---|---|---|
| 1777851874 | 18.33° C | 62% | 1010.6 hPa | - | - | 208 W/m² | - |
| 1777851572 | 18.89° C | 61% | 1010.5 hPa | - | - | 223 W/m² | - |
| 1777851269 | 18.89° C | 62% | 1010.4 hPa | - | - | 202 W/m² | - |
| 1777850965 | 18.89° C | 62% | 1010.4 hPa | - | - | 292 W/m² | - |
| 1777850662 | 18.89° C | 61% | 1010.5 hPa | - | - | 233 W/m² | - |
| 1777850360 | 18.89° C | 60% | 1010.6 hPa | - | - | 225 W/m² | - |
| 1777850057 | 19.44° C | 59% | 1010.6 hPa | - | - | 249 W/m² | - |
| 1777849753 | 20° C | 56% | 1010.6 hPa | - | - | 296 W/m² | - |
| 1777849450 | 20° C | 55% | 1010.6 hPa | - | - | 317 W/m² | - |
| 1777849148 | 20.56° C | 55% | 1010.7 hPa | - | - | 371 W/m² | - |
| 1777848844 | 20° C | 57% | 1010.6 hPa | - | - | 795 W/m² | - |
| 1777848540 | 20° C | 56% | 1010.7 hPa | - | - | 352 W/m² | - |
| 1777848237 | 20° C | 55% | 1010.8 hPa | - | - | 281 W/m² | - |
| 1777847935 | 20° C | 55% | 1011 hPa | - | - | 334 W/m² | - |
| 1777847633 | 20° C | 55% | 1010.9 hPa | - | - | 560 W/m² | - |
| 1777847328 | 20° C | 57% | 1010.9 hPa | - | - | 555 W/m² | - |
| 1777847027 | 20° C | 58% | 1011.1 hPa | - | - | 331 W/m² | - |
| 1777846724 | 20° C | 55% | 1011.2 hPa | - | - | 434 W/m² | - |
| 1777846423 | 20° C | 56% | 1011.3 hPa | - | - | 409 W/m² | - |
| 1777846118 | 20° C | 56% | 1011.1 hPa | - | - | 521 W/m² | - |
| 1777845815 | 20° C | 56% | 1011.3 hPa | - | - | 332 W/m² | - |
| 1777845512 | 20° C | 56% | 1011.4 hPa | - | - | 340 W/m² | - |
| 1777845209 | 20° C | 55% | 1011.3 hPa | - | - | 560 W/m² | - |
| 1777844907 | 20° C | 54% | 1011.4 hPa | - | - | 351 W/m² | - |
| 1777844604 | 20° C | 54% | 1011.1 hPa | - | - | 356 W/m² | - |
* Rain since midnight (hover to see other rain measurements)
** Current wind speed in m/s (hover to see current wind gust speed)